createdAt,value
2023-03-27T04:00:26.683Z,1.40
2023-03-27T04:04:43.742Z,1.10
2023-03-27T04:08:58.187Z,1.57
2023-03-27T04:13:28.459Z,1.90
2023-03-27T04:17:50.741Z,1.30
2023-03-27T04:22:03.537Z,1.53
2023-03-27T04:26:18.702Z,1.23
2023-03-27T04:30:50.503Z,1.63
2023-03-27T04:35:21.324Z,1.50
2023-03-27T04:39:43.460Z,1.40
2023-03-27T04:43:55.787Z,1.27
2023-03-27T04:48:07.282Z,1.43
2023-03-27T04:52:19.432Z,1.20
2023-03-27T04:56:33.802Z,1.50
2023-03-27T05:00:50.224Z,1.33
2023-03-27T05:05:08.960Z,1.37
2023-03-27T05:09:22.828Z,1.20
2023-03-27T05:13:34.612Z,1.77
2023-03-27T05:17:52.869Z,1.80
2023-03-27T05:22:05.737Z,1.43
2023-03-27T05:26:17.361Z,1.50
2023-03-27T05:30:42.190Z,1.30
2023-03-27T05:35:22.331Z,1.50
2023-03-27T05:39:36.730Z,1.57
2023-03-27T05:43:53.447Z,1.50
2023-03-27T05:48:06.399Z,1.63
2023-03-27T05:52:28.642Z,1.77
2023-03-27T05:56:41.145Z,1.77
2023-03-27T06:00:52.809Z,1.70
2023-03-27T06:05:10.814Z,1.43
2023-03-27T06:09:25.255Z,1.67
2023-03-27T06:13:58.485Z,1.80
2023-03-27T06:18:22.299Z,1.90
2023-03-27T06:22:33.794Z,2.40
2023-03-27T06:26:48.830Z,2.80
2023-03-27T06:31:00.502Z,2.60
2023-03-27T06:35:24.322Z,3.23
2023-03-27T06:39:38.967Z,2.70
2023-03-27T06:43:50.471Z,2.30
2023-03-27T06:48:21.320Z,1.88
2023-03-27T06:52:37.012Z,1.87
2023-03-27T06:57:01.917Z,2.30
2023-03-27T07:01:22.172Z,3.90
2023-03-27T07:05:58.210Z,2.07
2023-03-27T07:10:15.421Z,1.98
2023-03-27T07:14:26.963Z,5.82
2023-03-27T07:18:38.504Z,1.88
2023-03-27T07:22:50.830Z,2.30
2023-03-27T07:27:13.229Z,1.95
2023-03-27T07:31:37.287Z,1.73
2023-03-27T07:35:59.054Z,2.17
2023-03-27T07:40:26.625Z,1.98
2023-03-27T07:45:22.587Z,2.00
2023-03-27T07:49:39.183Z,2.47
2023-03-27T07:53:58.388Z,1.50
2023-03-27T07:58:17.729Z,1.77
2023-03-27T08:02:30.604Z,1.45
2023-03-27T08:06:42.553Z,2.10
2023-03-27T08:11:00.368Z,1.77
2023-03-27T08:15:16.256Z,1.35
2023-03-27T08:19:27.836Z,1.20
2023-03-27T08:23:44.235Z,1.55
2023-03-27T08:28:14.305Z,1.40
2023-03-27T08:32:26.857Z,1.73
2023-03-27T08:36:40.122Z,1.42
2023-03-27T08:40:54.399Z,1.33
2023-03-27T08:45:42.646Z,1.48
2023-03-27T08:49:58.023Z,1.83
2023-03-27T08:54:35.024Z,1.40
2023-03-27T08:58:48.649Z,1.58
2023-03-27T09:03:24.712Z,1.88
2023-03-27T09:08:17.212Z,1.67
2023-03-27T09:12:39.822Z,1.23
2023-03-27T09:16:56.776Z,1.20
2023-03-27T09:21:19.894Z,1.33
2023-03-27T09:25:37.787Z,1.92
2023-03-27T09:30:10.813Z,1.40
2023-03-27T09:34:34.780Z,1.70
2023-03-27T09:38:50.868Z,1.20
2023-03-27T09:43:09.082Z,1.25
2023-03-27T09:47:44.161Z,1.40
2023-03-27T09:51:59.368Z,1.08
2023-03-27T09:56:30.698Z,1.10
2023-03-27T10:00:43.285Z,1.35
2023-03-27T10:05:00.927Z,1.50
2023-03-27T10:09:34.325Z,1.20
2023-03-27T10:13:52.227Z,0.98
2023-03-27T10:18:23.380Z,1.40
2023-03-27T10:22:42.416Z,1.10
2023-03-27T10:26:54.524Z,1.20
2023-03-27T10:31:24.458Z,1.20
2023-03-27T10:35:49.164Z,1.17
2023-03-27T10:40:09.235Z,1.13
2023-03-27T10:44:25.903Z,1.13
2023-03-27T10:48:48.858Z,1.27
2023-03-27T10:53:19.605Z,1.10
2023-03-27T10:57:56.025Z,0.80
2023-03-27T11:02:20.842Z,1.10
2023-03-27T11:06:41.843Z,0.98
2023-03-27T11:11:07.200Z,1.10
2023-03-27T11:15:30.384Z,0.88
2023-03-27T11:19:49.746Z,1.25
2023-03-27T11:24:39.362Z,1.20
2023-03-27T11:29:04.083Z,2.67
2023-03-27T11:34:00.674Z,1.15
2023-03-27T11:38:25.809Z,0.82
2023-03-27T11:42:43.228Z,3.95
2023-03-27T11:47:21.559Z,3.30
2023-03-27T11:51:47.870Z,6.20
2023-03-27T11:56:03.029Z,10.65
2023-03-27T12:00:31.075Z,2.58
2023-03-27T12:04:50.386Z,1.45
2023-03-27T12:09:27.032Z,1.23
2023-03-27T12:14:40.790Z,1.00
2023-03-27T12:19:27.937Z,0.82
2023-03-27T12:24:40.532Z,1.27
2023-03-27T12:29:47.858Z,1.05
2023-03-27T12:34:04.166Z,0.90
2023-03-27T12:38:37.552Z,0.90
2023-03-27T12:42:53.492Z,0.90
2023-03-27T12:47:22.633Z,0.68
2023-03-27T12:51:53.636Z,0.60
2023-03-27T12:56:33.457Z,0.70
2023-03-27T13:01:00.132Z,0.50
2023-03-27T13:05:49.649Z,0.90
2023-03-27T13:10:32.058Z,0.88
2023-03-27T13:14:53.614Z,1.00
2023-03-27T13:19:24.110Z,1.13
2023-03-27T13:23:47.721Z,0.80
2023-03-27T13:28:34.630Z,1.02
2023-03-27T13:33:09.801Z,0.65
2023-03-27T13:37:36.834Z,1.10
2023-03-27T13:42:02.481Z,0.90
2023-03-27T13:46:29.035Z,0.60
2023-03-27T13:51:16.702Z,0.80
2023-03-27T13:55:41.970Z,0.50
2023-03-27T14:00:48.858Z,0.60
2023-03-27T14:05:21.518Z,0.70
2023-03-27T14:09:58.386Z,0.70
2023-03-27T14:14:40.505Z,0.90
2023-03-27T14:19:30.868Z,1.00
2023-03-27T14:23:58.942Z,0.60
2023-03-27T14:28:31.692Z,0.80
2023-03-27T14:32:45.188Z,0.77
2023-03-27T14:36:58.580Z,0.70
2023-03-27T14:41:23.932Z,1.33
2023-03-27T14:45:40.948Z,0.80
2023-03-27T14:49:58.956Z,0.80
2023-03-27T14:54:28.738Z,0.73
2023-03-27T14:58:52.111Z,0.88
2023-03-27T15:03:17.200Z,0.70
2023-03-27T15:07:34.148Z,1.00
2023-03-27T15:11:56.425Z,0.90
2023-03-27T15:16:19.701Z,0.65
2023-03-27T15:20:34.460Z,0.73
2023-03-27T15:24:55.620Z,0.90
2023-03-27T15:29:17.951Z,1.00
2023-03-27T15:33:40.962Z,0.80
2023-03-27T15:37:53.333Z,1.10
2023-03-27T15:42:11.847Z,1.98
2023-03-27T15:46:26.723Z,2.03
2023-03-27T15:50:38.437Z,2.75
2023-03-27T15:54:55.287Z,1.30
2023-03-27T15:59:10.522Z,2.70
2023-03-27T16:03:24.292Z,1.10
2023-03-27T16:07:38.823Z,0.93
2023-03-27T16:11:50.862Z,0.80
2023-03-27T16:16:06.421Z,1.33
2023-03-27T16:20:39.146Z,1.02
2023-03-27T16:24:51.815Z,3.17
2023-03-27T16:29:04.695Z,2.20
2023-03-27T16:33:19.048Z,1.85
2023-03-27T16:37:30.534Z,1.20
2023-03-27T16:41:42.371Z,3.55
2023-03-27T16:45:55.259Z,2.63
2023-03-27T16:50:11.686Z,1.42
2023-03-27T16:54:23.405Z,1.90
2023-03-27T16:58:35.240Z,1.90
2023-03-27T17:02:47.238Z,0.80
2023-03-27T17:06:58.958Z,0.60
2023-03-27T17:11:13.011Z,0.63
2023-03-27T17:15:24.503Z,0.60
2023-03-27T17:19:36.002Z,0.80
2023-03-27T17:23:48.637Z,0.82
2023-03-27T17:28:00.204Z,1.10
2023-03-27T17:32:11.914Z,1.17
2023-03-27T17:36:36.693Z,0.93
2023-03-27T17:40:52.930Z,1.30
2023-03-27T17:45:05.343Z,1.10
2023-03-27T17:49:16.811Z,1.25
2023-03-27T17:53:29.271Z,1.67
2023-03-27T17:57:41.558Z,1.40
2023-03-27T18:01:53.256Z,1.25
2023-03-27T18:06:05.417Z,1.50
2023-03-27T18:10:19.222Z,1.60
2023-03-27T18:14:30.789Z,1.25
2023-03-27T18:18:42.474Z,1.70
2023-03-27T18:22:54.133Z,1.10
2023-03-27T18:27:05.873Z,1.60
2023-03-27T18:31:17.786Z,1.75
2023-03-27T18:35:29.795Z,1.70
2023-03-27T18:39:41.547Z,2.17
2023-03-27T18:43:53.287Z,2.50
2023-03-27T18:48:06.157Z,1.80
2023-03-27T18:52:17.909Z,1.90
2023-03-27T18:56:29.497Z,3.65
2023-03-27T19:00:41.130Z,5.50
2023-03-27T19:04:53.512Z,5.47
2023-03-27T19:09:05.535Z,4.70
2023-03-27T19:13:17.387Z,2.53
2023-03-27T19:17:47.761Z,2.60
2023-03-27T19:22:12.579Z,2.25
2023-03-27T19:26:34.018Z,2.70
2023-03-27T19:30:46.042Z,3.80
2023-03-27T19:34:57.589Z,3.83
2023-03-27T19:39:09.552Z,3.95
2023-03-27T19:43:21.867Z,3.45
2023-03-27T19:47:33.491Z,3.90
2023-03-27T19:51:46.265Z,4.50
2023-03-27T19:55:59.604Z,5.67
2023-03-27T20:00:12.847Z,5.07
2023-03-27T20:04:27.143Z,4.23
2023-03-27T20:08:42.363Z,3.90
2023-03-27T20:12:58.016Z,4.43
2023-03-27T20:17:25.330Z,3.93
2023-03-27T20:21:41.133Z,3.93
2023-03-27T20:25:56.923Z,2.63
2023-03-27T20:30:13.925Z,3.33
2023-03-27T20:34:25.701Z,2.83
2023-03-27T20:38:37.226Z,3.30
2023-03-27T20:42:51.231Z,3.47
2023-03-27T20:47:03.513Z,3.43
2023-03-27T20:51:17.602Z,3.70
2023-03-27T20:55:34.840Z,3.87
2023-03-27T20:59:51.355Z,3.57
2023-03-27T21:04:03.068Z,8.07
2023-03-27T21:08:15.512Z,7.90
2023-03-27T21:12:27.169Z,6.03
2023-03-27T21:16:38.751Z,4.83
2023-03-27T21:20:50.643Z,3.00
2023-03-27T21:25:02.200Z,3.43
2023-03-27T21:29:15.317Z,3.37
